Cave Springs, Texas
Current Conditions -  °F | °C
As of 3:15 PM on Tuesday 21 Oct 2014 (Local Time) from KASL Reporting Station
Scattered Clouds Scattered Clouds  
Wind Chill: 80°   Ceiling: Unl
Heat Index: 81°   Visibility: 10mi
Dew Point: 63°   Wind: 0mph
Humidity: 56%   Direction: NA
Pressure: 30.06"   Gusts: NA
Location:  32.4675°N, 94.3321°W
Report Text: KASL 212015Z AUTO 00000KT 10SM SCT037 27/17 A3006 RMK AO1 T02660172
Loading
Personal Weather Stations






























Interactive Weather Map
Tropical Storm Tracking
New forecast layout! Learn more

10-Day Weather Forecast

Advertisements
Track Severe Weather on mobile